Time;durP1;ratioP1;P1;durP2;ratioP2;P2;SDS_P1;SDS_P2;PMS_P1;PMS_P2;Temp;Humidity;BMP_temperature;BMP_pressure;BME280_temperature;BME280_humidity;BME280_pressure;Samples;Min_cycle;Max_cycle;Signal;HPM_P1;HPM_P2
2021/03/16 00:01:33;;;;;;;8.45;2.10;;;;;;;2.67;74.75;101417.69;10166355;28;20115;-68
2021/03/16 00:06:29;;;;;;;9.93;1.98;;;;;;;2.59;74.28;101418.09;10165276;28;20061;-65
2021/03/16 00:11:25;;;;;;;9.48;1.85;;;;;;;2.47;74.27;101422.78;10162560;28;20058;-67
2021/03/16 00:16:23;;;;;;;7.70;1.63;;;;;;;2.27;74.48;101434.84;10171658;28;20057;-67
2021/03/16 00:21:19;;;;;;;8.98;1.73;;;;;;;2.21;74.86;101441.25;10166315;28;20470;-64
2021/03/16 00:26:15;;;;;;;5.82;1.50;;;;;;;2.24;74.78;101450.72;10177178;28;20045;-64
2021/03/16 00:31:11;;;;;;;10.52;1.73;;;;;;;2.31;74.44;101451.38;10176292;28;20046;-66
2021/03/16 00:36:07;;;;;;;4.85;1.38;;;;;;;2.23;73.67;101458.00;10178107;28;20057;-68
2021/03/16 00:41:03;;;;;;;10.68;1.63;;;;;;;2.12;74.09;101458.91;10173814;28;20129;-67
2021/03/16 00:46:00;;;;;;;6.03;1.40;;;;;;;2.13;73.97;101465.09;10170667;28;20093;-67
2021/03/16 00:50:56;;;;;;;6.82;2.15;;;;;;;2.13;73.34;101474.00;10171627;28;20071;-69
2021/03/16 00:55:53;;;;;;;5.05;1.13;;;;;;;2.01;73.38;101484.03;10173865;28;20421;-67
2021/03/16 01:00:49;;;;;;;9.90;1.65;;;;;;;1.93;74.02;101484.41;10170594;28;20125;-66
2021/03/16 01:05:47;;;;;;;5.95;1.50;;;;;;;1.73;74.86;101485.69;10167569;28;22033;-66
2021/03/16 01:10:44;;;;;;;8.45;1.40;;;;;;;1.72;73.76;101475.97;10179496;28;20041;-64
2021/03/16 01:15:41;;;;;;;5.28;1.52;;;;;;;1.76;74.81;101487.06;10171095;28;20498;-68
2021/03/16 01:20:38;;;;;;;6.20;1.48;;;;;;;1.70;74.39;101488.88;10178415;28;20069;-68
2021/03/16 01:25:34;;;;;;;7.85;1.02;;;;;;;1.65;74.29;101491.47;10161196;28;20057;-68
2021/03/16 01:30:30;;;;;;;5.47;1.45;;;;;;;1.55;74.75;101496.63;10173967;28;20050;-68
2021/03/16 01:35:26;;;;;;;5.32;1.27;;;;;;;1.35;75.51;101497.84;10181345;28;20124;-67
2021/03/16 01:40:37;;;;;;;6.88;1.55;;;;;;;1.45;75.57;101498.06;10178772;28;20128;-65
2021/03/16 01:45:33;;;;;;;5.97;1.30;;;;;;;1.43;75.72;101494.78;10170561;28;20038;-65
2021/03/16 01:50:30;;;;;;;8.02;1.23;;;;;;;1.46;75.85;101488.94;10160635;28;20077;-65
2021/03/16 01:55:28;;;;;;;6.95;1.60;;;;;;;1.32;76.00;101497.50;10179960;28;20050;-64
2021/03/16 02:00:29;;;;;;;6.03;1.50;;;;;;;1.38;76.32;101491.16;10179201;28;20046;-63
2021/03/16 02:05:26;;;;;;;7.53;1.60;;;;;;;1.42;75.96;101498.53;10164890;28;20077;-66
2021/03/16 02:10:32;;;;;;;6.82;1.38;;;;;;;1.35;76.45;101503.25;10187642;28;20057;-67
2021/03/16 02:15:34;;;;;;;6.55;1.50;;;;;;;1.26;76.90;101510.88;10176202;28;20077;-68
2021/03/16 02:20:40;;;;;;;7.22;1.55;;;;;;;1.30;76.71;101511.22;10159008;28;20050;-65
2021/03/16 02:25:45;;;;;;;4.88;1.20;;;;;;;1.27;77.27;101501.72;10169637;28;20115;-66
2021/03/16 02:30:43;;;;;;;6.50;1.40;;;;;;;1.22;77.89;101511.56;10176225;28;20046;-65
2021/03/16 02:35:44;;;;;;;8.98;1.42;;;;;;;1.24;77.81;101523.75;10181863;28;20100;-63
2021/03/16 02:40:42;;;;;;;10.57;2.00;;;;;;;1.22;78.34;101525.03;10170892;28;20133;-65
2021/03/16 02:45:38;;;;;;;8.43;1.88;;;;;;;1.16;79.08;101525.97;10180672;28;20050;-65
2021/03/16 02:50:35;;;;;;;7.88;1.92;;;;;;;1.16;79.46;101531.34;10184898;28;20080;-66
2021/03/16 02:55:31;;;;;;;5.63;1.58;;;;;;;1.14;80.18;101533.47;10178705;28;20410;-65
2021/03/16 03:00:29;;;;;;;9.20;1.70;;;;;;;1.07;80.67;101532.75;10166109;28;20064;-67
2021/03/16 03:05:25;;;;;;;9.93;1.85;;;;;;;1.08;81.16;101545.19;10172738;28;20137;-65
2021/03/16 03:10:23;;;;;;;6.45;1.60;;;;;;;1.04;81.79;101545.66;10181422;28;20046;-66
2021/03/16 03:15:19;;;;;;;8.20;1.77;;;;;;;1.09;82.18;101552.22;10178859;28;20053;-66
2021/03/16 03:20:16;;;;;;;13.32;2.17;;;;;;;1.05;82.76;101552.69;10154760;28;20046;-65
2021/03/16 03:25:23;;;;;;;17.08;3.20;;;;;;;1.10;83.64;101564.63;10168063;28;20092;-68
2021/03/16 03:30:23;;;;;;;15.77;2.60;;;;;;;1.12;84.16;101563.34;10181641;28;20038;-67
2021/03/16 03:35:20;;;;;;;18.08;3.42;;;;;;;1.11;84.84;101555.50;10183604;28;20046;-67
2021/03/16 03:40:19;;;;;;;11.93;2.67;;;;;;;1.16;84.99;101563.69;10171276;28;20096;-65
2021/03/16 03:45:18;;;;;;;9.02;2.53;;;;;;;1.10;85.87;101570.03;10152886;28;20058;-64
2021/03/16 03:50:15;;;;;;;14.38;3.38;;;;;;;1.19;85.50;101568.63;10165889;28;20094;-65
2021/03/16 03:55:12;;;;;;;18.40;3.67;;;;;;;1.18;85.95;101577.75;10169536;28;20108;-64
2021/03/16 04:00:26;;;;;;;17.85;4.53;;;;;;;1.19;86.70;101579.41;10174131;28;20049;-65
2021/03/16 04:05:22;;;;;;;28.85;4.00;;;;;;;1.25;87.38;101581.13;10167982;28;20046;-66
2021/03/16 04:10:18;;;;;;;15.32;4.63;;;;;;;1.27;87.62;101581.72;10173946;28;20162;-66
2021/03/16 04:15:16;;;;;;;19.25;5.00;;;;;;;1.26;88.32;101585.50;10175539;28;20045;-64
2021/03/16 04:20:14;;;;;;;21.08;6.70;;;;;;;1.27;88.56;101581.72;10174963;28;20544;-66
2021/03/16 04:25:11;;;;;;;24.55;6.45;;;;;;;1.22;89.30;101585.13;10163675;28;20061;-63
2021/03/16 04:30:08;;;;;;;36.33;10.35;;;;;;;1.27;89.22;101595.19;10173992;28;20046;-65
2021/03/16 04:35:05;;;;;;;29.35;9.80;;;;;;;1.33;90.22;101605.06;10169038;28;20645;-65
2021/03/16 04:40:01;;;;;;;27.67;10.00;;;;;;;1.47;90.51;101608.31;10169192;28;20053;-66
2021/03/16 04:44:57;;;;;;;38.95;12.18;;;;;;;1.58;89.92;101615.59;10173682;28;20044;-65
2021/03/16 04:49:52;;;;;;;48.33;11.65;;;;;;;1.66;90.78;101622.50;10174044;28;20417;-65
2021/03/16 04:54:49;;;;;;;45.08;11.30;;;;;;;1.61;90.74;101619.69;10161399;28;20737;-65
2021/03/16 04:59:45;;;;;;;40.67;12.75;;;;;;;1.63;90.91;101639.16;10173325;28;20458;-66
2021/03/16 05:04:41;;;;;;;43.40;11.60;;;;;;;1.68;90.51;101648.16;10167876;28;20041;-64
2021/03/16 05:09:38;;;;;;;39.53;11.82;;;;;;;1.73;90.06;101660.94;10178624;28;20109;-67
2021/03/16 05:14:34;;;;;;;37.72;12.63;;;;;;;1.79;89.68;101665.41;10173179;28;20042;-67
2021/03/16 05:19:33;;;;;;;34.97;11.43;;;;;;;1.87;89.38;101662.31;10176918;28;20097;-67
2021/03/16 05:24:29;;;;;;;39.60;11.80;;;;;;;1.94;89.65;101664.09;10170285;28;20061;-67
2021/03/16 05:29:25;;;;;;;35.35;9.05;;;;;;;1.99;89.81;101669.59;10173213;28;20447;-66
2021/03/16 05:34:21;;;;;;;28.88;7.82;;;;;;;1.93;89.97;101670.53;10173840;28;20169;-66
2021/03/16 05:39:17;;;;;;;40.58;8.57;;;;;;;2.11;89.39;101683.88;10174494;28;20053;-64
2021/03/16 05:44:16;;;;;;;33.03;7.82;;;;;;;2.28;89.34;101678.56;10167138;28;20124;-65
2021/03/16 05:49:16;;;;;;;28.60;7.05;;;;;;;2.42;89.10;101679.13;10156404;28;20068;-64
2021/03/16 05:54:12;;;;;;;35.30;6.97;;;;;;;2.49;88.52;101685.19;10167394;28;20387;-65
2021/03/16 05:59:09;;;;;;;32.55;6.35;;;;;;;2.51;88.13;101691.19;10177003;28;20129;-65
2021/03/16 06:04:05;;;;;;;34.75;6.20;;;;;;;2.64;88.09;101688.16;10173096;28;20053;-67
2021/03/16 06:09:01;;;;;;;33.70;6.32;;;;;;;2.67;87.64;101679.59;10173873;28;20054;-65
2021/03/16 06:13:57;;;;;;;31.85;6.75;;;;;;;2.80;86.98;101691.16;10170149;28;20052;-63
2021/03/16 06:18:53;;;;;;;28.40;5.55;;;;;;;2.83;86.51;101690.69;10177901;28;20042;-64
2021/03/16 06:23:55;;;;;;;22.67;4.68;;;;;;;2.90;86.61;101696.75;10169650;28;20053;-64
2021/03/16 06:28:52;;;;;;;35.42;4.63;;;;;;;3.00;85.83;101699.66;10155746;28;20422;-66
2021/03/16 06:33:48;;;;;;;20.67;4.68;;;;;;;3.12;85.66;101716.63;10151590;28;20054;-65
2021/03/16 06:38:44;;;;;;;31.35;4.75;;;;;;;3.16;84.91;101715.06;10174253;28;20047;-65
2021/03/16 06:43:41;;;;;;;28.73;5.13;;;;;;;3.19;84.84;101719.16;10167994;28;20057;-64
2021/03/16 06:48:38;;;;;;;25.33;4.85;;;;;;;3.23;83.62;101719.50;10185678;28;20132;-64
2021/03/16 06:53:34;;;;;;;19.17;3.50;;;;;;;3.30;83.37;101714.78;10176116;28;20052;-64
2021/03/16 06:58:44;;;;;;;22.08;4.10;;;;;;;3.38;82.67;101719.75;10163647;28;20049;-65
2021/03/16 07:03:42;;;;;;;21.13;5.10;;;;;;;3.54;81.94;101723.53;10169194;28;20050;-65
2021/03/16 07:08:41;;;;;;;18.45;3.65;;;;;;;3.59;81.01;101727.13;10161935;28;20077;-67
2021/03/16 07:13:39;;;;;;;20.02;3.53;;;;;;;3.71;80.34;101731.63;10159898;28;20046;-64
2021/03/16 07:18:38;;;;;;;24.80;4.30;;;;;;;3.59;79.48;101743.34;10167892;28;20043;-64
2021/03/16 07:23:53;;;;;;;17.52;3.05;;;;;;;3.65;78.77;101751.56;10146919;28;20046;-66
2021/03/16 07:28:50;;;;;;;19.08;3.30;;;;;;;3.77;78.31;101749.59;10164962;28;20043;-65
2021/03/16 07:33:47;;;;;;;20.17;3.65;;;;;;;3.80;77.90;101749.09;10093049;28;20098;-65
2021/03/16 07:38:45;;;;;;;15.90;3.22;;;;;;;3.99;76.79;101753.19;10054367;28;20400;-65
2021/03/16 07:43:41;;;;;;;17.13;3.90;;;;;;;4.15;76.40;101750.69;10051015;29;20767;-66
2021/03/16 07:48:52;;;;;;;15.18;3.38;;;;;;;4.13;76.33;101763.63;10056254;28;20051;-66
2021/03/16 07:54:01;;;;;;;16.80;2.30;;;;;;;4.13;75.62;101763.63;10057056;29;20431;-63
2021/03/16 07:58:57;;;;;;;15.30;2.15;;;;;;;4.15;75.70;101772.34;10051383;28;20047;-64
2021/03/16 08:04:10;;;;;;;17.00;2.40;;;;;;;4.25;74.89;101771.66;10043198;29;20043;-64
2021/03/16 08:09:18;;;;;;;17.85;3.38;;;;;;;4.19;75.68;101776.19;10061365;28;20047;-64
2021/03/16 08:14:30;;;;;;;18.10;3.03;;;;;;;4.26;75.14;101773.31;10054897;28;20066;-64
2021/03/16 08:19:38;;;;;;;11.18;2.33;;;;;;;4.37;74.02;101781.31;10055555;28;20061;-64
2021/03/16 08:24:37;;;;;;;14.13;2.90;;;;;;;4.37;74.08;101786.72;10046773;28;20139;-64
2021/03/16 08:29:33;;;;;;;19.02;2.35;;;;;;;4.49;74.12;101793.94;10041650;29;20080;-62
2021/03/16 08:34:30;;;;;;;14.00;2.13;;;;;;;4.58;74.17;101792.44;10052795;28;20096;-60
2021/03/16 08:39:28;;;;;;;22.15;4.00;;;;;;;4.50;73.57;101798.25;10036501;28;20075;-61
2021/03/16 08:44:25;;;;;;;20.42;3.35;;;;;;;4.59;74.18;101788.63;10042575;28;20043;-64
2021/03/16 08:49:24;;;;;;;19.13;2.63;;;;;;;4.63;73.43;101795.19;10049728;29;20061;-63
2021/03/16 08:54:27;;;;;;;16.33;2.53;;;;;;;4.64;73.14;101797.66;10038896;29;20117;-65
2021/03/16 08:59:24;;;;;;;13.13;3.10;;;;;;;4.67;71.93;101800.94;10053872;28;20471;-65
2021/03/16 09:04:21;;;;;;;16.48;2.10;;;;;;;4.80;71.58;101801.38;10048871;28;20495;-62
2021/03/16 09:09:24;;;;;;;11.38;2.03;;;;;;;4.82;71.64;101806.53;10055662;28;20058;-63
2021/03/16 09:14:22;;;;;;;20.30;3.30;;;;;;;4.87;71.19;101806.59;10050053;28;20153;-66
2021/03/16 09:19:21;;;;;;;21.67;2.55;;;;;;;5.14;71.56;101801.22;10053049;28;20581;-64
2021/03/16 09:24:27;;;;;;;19.77;2.60;;;;;;;5.38;70.24;101806.34;10046004;28;20134;-64
2021/03/16 09:29:30;;;;;;;14.50;2.13;;;;;;;5.34;70.05;101805.19;10052582;28;20400;-64
2021/03/16 09:34:37;;;;;;;14.18;2.67;;;;;;;5.46;68.77;101814.03;10053413;28;20098;-64
2021/03/16 09:39:33;;;;;;;14.82;2.55;;;;;;;5.57;69.87;101810.34;10050897;29;20463;-65
2021/03/16 09:44:39;;;;;;;23.25;3.38;;;;;;;5.55;69.91;101812.47;10044226;28;20051;-62
2021/03/16 09:49:38;;;;;;;12.95;2.67;;;;;;;5.54;69.71;101810.84;10057205;28;20047;-63
2021/03/16 09:54:45;;;;;;;21.40;3.30;;;;;;;5.63;68.38;101814.72;10050757;28;20467;-63
2021/03/16 09:59:45;;;;;;;15.20;2.50;;;;;;;5.80;66.53;101813.75;10065879;28;20095;-65
2021/03/16 10:04:51;;;;;;;13.57;2.55;;;;;;;5.92;66.13;101828.00;10055063;29;20054;-64
2021/03/16 10:09:47;;;;;;;21.80;2.80;;;;;;;5.92;66.90;101828.00;10059404;28;20508;-63
2021/03/16 10:14:44;;;;;;;16.40;3.22;;;;;;;6.00;67.67;101834.88;10056817;28;20538;-67
2021/03/16 10:19:42;;;;;;;20.13;2.95;;;;;;;6.02;68.23;101844.41;10055565;28;20066;-64
2021/03/16 10:24:38;;;;;;;20.10;3.58;;;;;;;6.11;66.09;101848.25;10053509;28;20060;-65
2021/03/16 10:29:38;;;;;;;14.63;2.47;;;;;;;6.15;65.86;101853.16;10051592;28;20047;-64
2021/03/16 10:34:34;;;;;;;16.50;2.78;;;;;;;6.16;66.07;101865.69;10053436;28;20419;-64
2021/03/16 10:39:30;;;;;;;16.52;2.45;;;;;;;5.99;66.55;101855.78;10058333;29;20149;-64
2021/03/16 10:44:26;;;;;;;16.85;2.72;;;;;;;6.20;66.68;101855.94;10053794;29;20043;-66
2021/03/16 10:49:22;;;;;;;14.43;2.22;;;;;;;6.31;65.02;101857.63;10048077;28;20536;-64
2021/03/16 10:54:18;;;;;;;13.90;2.72;;;;;;;6.32;64.88;101853.84;10047964;29;20047;-64
2021/03/16 10:59:14;;;;;;;18.10;2.30;;;;;;;6.26;64.89;101854.88;10048292;28;20465;-64
2021/03/16 11:04:10;;;;;;;13.63;2.30;;;;;;;6.39;64.11;101865.31;10048080;28;20048;-64
2021/03/16 11:09:07;;;;;;;18.27;2.45;;;;;;;6.38;64.92;101869.09;10048297;28;20051;-65
2021/03/16 11:14:04;;;;;;;11.98;1.92;;;;;;;6.53;64.12;101863.75;10046541;28;20054;-66
2021/03/16 11:19:02;;;;;;;18.40;2.28;;;;;;;6.50;64.01;101877.88;10053735;28;20499;-65
2021/03/16 11:23:59;;;;;;;18.23;2.45;;;;;;;6.32;64.40;101875.59;10035372;28;20083;-64
2021/03/16 11:28:55;;;;;;;15.57;2.80;;;;;;;6.30;63.71;101872.31;10054714;29;20043;-63
2021/03/16 11:33:51;;;;;;;24.17;3.38;;;;;;;6.38;64.08;101882.66;10046615;28;20137;-64
2021/03/16 11:38:47;;;;;;;27.08;4.15;;;;;;;6.40;64.29;101872.34;10044869;29;20047;-65
2021/03/16 11:43:43;;;;;;;14.25;3.88;;;;;;;6.35;64.31;101888.63;10041653;28;20059;-63
2021/03/16 11:48:40;;;;;;;22.92;4.40;;;;;;;6.30;63.68;101877.72;10054182;28;20055;-66
2021/03/16 11:53:36;;;;;;;15.60;2.28;;;;;;;6.47;63.68;101878.38;10041386;29;20090;-64
2021/03/16 11:58:34;;;;;;;14.10;2.03;;;;;;;6.61;63.23;101872.50;10046396;28;20472;-64
2021/03/16 12:03:30;;;;;;;11.07;2.47;;;;;;;6.29;63.23;101865.25;10043746;29;20050;-63
2021/03/16 12:08:27;;;;;;;19.85;4.88;;;;;;;6.66;62.19;101869.81;10044500;28;20047;-65
2021/03/16 12:13:22;;;;;;;14.98;2.15;;;;;;;6.86;61.02;101867.19;10048565;28;20047;-64
2021/03/16 12:18:18;;;;;;;17.20;2.58;;;;;;;6.91;60.97;101871.84;10045292;28;20054;-64
2021/03/16 12:23:15;;;;;;;16.88;2.55;;;;;;;6.90;61.46;101867.50;10049144;28;20047;-63
2021/03/16 12:28:12;;;;;;;20.40;2.63;;;;;;;7.30;59.78;101864.09;10048497;28;20126;-67
2021/03/16 12:33:08;;;;;;;11.25;2.38;;;;;;;7.18;58.59;101881.75;10053204;28;20043;-65
2021/03/16 12:38:04;;;;;;;13.30;2.72;;;;;;;7.12;59.37;101870.84;10048303;28;20641;-64
2021/03/16 12:43:00;;;;;;;13.20;2.10;;;;;;;7.36;58.79;101857.59;10058046;28;20078;-65
2021/03/16 12:47:56;;;;;;;12.77;3.05;;;;;;;7.24;57.78;101857.03;10059391;28;20074;-65
2021/03/16 12:52:53;;;;;;;10.55;2.10;;;;;;;7.18;57.33;101866.25;10055322;28;20047;-62
2021/03/16 12:57:49;;;;;;;11.00;1.88;;;;;;;6.92;57.58;101874.31;10040115;29;20865;-64
2021/03/16 13:02:45;;;;;;;13.35;1.73;;;;;;;7.05;58.09;101872.19;10051181;28;20059;-64
2021/03/16 13:07:42;;;;;;;12.57;1.85;;;;;;;7.11;57.01;101869.22;10054135;28;20055;-65
2021/03/16 13:12:38;;;;;;;13.52;1.80;;;;;;;7.12;55.65;101873.56;10053678;28;20047;-65
2021/03/16 13:17:35;;;;;;;13.43;2.35;;;;;;;7.04;56.02;101867.84;10051661;28;20046;-66
2021/03/16 13:22:31;;;;;;;12.00;2.58;;;;;;;7.04;56.25;101876.00;10048220;28;20043;-64
2021/03/16 13:27:27;;;;;;;11.30;2.20;;;;;;;7.29;54.58;101864.38;10056684;28;20071;-64
2021/03/16 13:32:23;;;;;;;8.02;0.98;;;;;;;6.98;54.62;101887.91;10051272;28;20189;-65
2021/03/16 13:37:20;;;;;;;11.35;1.50;;;;;;;7.06;54.79;101876.53;10065472;28;20776;-64
2021/03/16 13:42:16;;;;;;;10.18;1.40;;;;;;;7.09;54.57;101878.72;10059836;28;20056;-64
2021/03/16 13:47:12;;;;;;;7.30;1.23;;;;;;;7.28;53.33;101869.00;10054007;28;20054;-64
2021/03/16 13:52:08;;;;;;;12.43;1.75;;;;;;;7.68;52.63;101874.78;10048748;28;20055;-65
2021/03/16 13:57:08;;;;;;;6.72;1.15;;;;;;;7.40;53.21;101890.53;10056958;28;20054;-63
2021/03/16 14:02:05;;;;;;;12.88;2.72;;;;;;;7.04;55.75;101892.31;10058872;28;20921;-65
2021/03/16 14:07:01;;;;;;;8.10;1.52;;;;;;;6.94;56.60;101899.34;10046926;28;20624;-64
2021/03/16 14:11:57;;;;;;;10.65;1.08;;;;;;;7.08;53.87;101891.50;10057003;28;20058;-65
2021/03/16 14:16:53;;;;;;;8.20;1.00;;;;;;;7.24;52.03;101897.84;10053152;28;20050;-65
2021/03/16 14:21:50;;;;;;;10.80;1.58;;;;;;;7.30;52.58;101913.06;10052487;28;20194;-65
2021/03/16 14:26:47;;;;;;;9.68;1.80;;;;;;;7.06;52.07;101907.28;10040764;29;20055;-64
2021/03/16 14:31:43;;;;;;;13.30;2.80;;;;;;;7.11;52.38;101909.19;10064130;28;20459;-66
2021/03/16 14:36:39;;;;;;;14.23;2.97;;;;;;;7.11;51.82;101914.63;10062983;28;20542;-65
2021/03/16 14:41:35;;;;;;;5.82;1.23;;;;;;;7.19;50.75;101916.84;10055959;28;20054;-66
2021/03/16 14:46:31;;;;;;;8.75;1.27;;;;;;;7.29;51.11;101910.63;10062912;28;20047;-68
2021/03/16 14:51:28;;;;;;;8.05;1.75;;;;;;;7.14;52.32;101914.09;10062686;28;20074;-66
2021/03/16 14:56:24;;;;;;;11.98;2.42;;;;;;;7.09;52.98;101916.81;10047446;29;20052;-66
2021/03/16 15:01:20;;;;;;;6.07;1.20;;;;;;;6.70;53.21;101920.66;10049227;28;20075;-66
2021/03/16 15:06:16;;;;;;;9.70;1.67;;;;;;;6.81;54.08;101924.25;10051725;28;20481;-66
2021/03/16 15:11:12;;;;;;;9.40;1.88;;;;;;;6.97;52.93;101918.91;10043800;29;20058;-66
2021/03/16 15:16:08;;;;;;;14.20;2.00;;;;;;;7.18;54.50;101919.84;10050954;28;20316;-67
2021/03/16 15:21:05;;;;;;;6.88;1.10;;;;;;;7.01;54.43;101920.00;10053088;28;20110;-66
2021/03/16 15:26:02;;;;;;;7.32;1.38;;;;;;;6.80;53.53;101914.47;10047742;28;20056;-67
2021/03/16 15:30:58;;;;;;;7.00;1.08;;;;;;;6.66;53.86;101913.28;10048713;29;20134;-65
2021/03/16 15:35:54;;;;;;;9.27;1.52;;;;;;;6.57;54.64;101910.25;10055494;28;20137;-65
2021/03/16 15:40:50;;;;;;;6.97;1.20;;;;;;;6.74;53.57;101916.34;10057237;28;20051;-64
2021/03/16 15:45:46;;;;;;;9.50;1.73;;;;;;;7.29;50.76;101911.44;10044225;28;20047;-64
2021/03/16 15:50:42;;;;;;;5.03;0.90;;;;;;;7.50;49.33;101914.25;10062037;28;20043;-64
2021/03/16 15:55:38;;;;;;;7.05;1.20;;;;;;;7.16;50.33;101906.50;10049084;28;20051;-65
2021/03/16 16:00:34;;;;;;;11.00;1.20;;;;;;;7.64;49.13;101912.63;10058460;28;20530;-64
2021/03/16 16:05:30;;;;;;;6.07;1.20;;;;;;;7.58;49.96;101910.97;10040747;28;20054;-64
2021/03/16 16:10:26;;;;;;;9.85;1.38;;;;;;;7.28;50.95;101915.25;10054015;28;20047;-64
2021/03/16 16:15:22;;;;;;;9.23;1.00;;;;;;;6.59;52.73;101916.25;10053657;28;20051;-62
2021/03/16 16:20:19;;;;;;;5.72;1.10;;;;;;;6.44;53.24;101916.13;10054461;28;20524;-64
2021/03/16 16:25:17;;;;;;;8.02;1.23;;;;;;;6.45;53.97;101924.03;10056470;28;20087;-63
2021/03/16 16:30:14;;;;;;;8.50;0.70;;;;;;;6.31;54.05;101928.25;10043336;28;20087;-64
2021/03/16 16:35:12;;;;;;;7.88;1.60;;;;;;;6.21;55.28;101942.56;10039114;28;20467;-64
2021/03/16 16:40:09;;;;;;;12.27;1.52;;;;;;;5.97;56.18;101933.13;10046493;28;20755;-64
2021/03/16 16:45:07;;;;;;;13.00;2.38;;;;;;;6.24;56.00;101938.50;10056116;28;20055;-65
2021/03/16 16:50:05;;;;;;;11.00;1.80;;;;;;;5.94;56.20;101944.44;10044761;29;20138;-65
2021/03/16 16:55:05;;;;;;;6.25;0.82;;;;;;;5.75;55.49;101958.38;10047519;29;20063;-65
2021/03/16 17:00:05;;;;;;;10.23;1.35;;;;;;;5.71;56.17;101957.28;10051907;29;20051;-64
2021/03/16 17:05:03;;;;;;;9.98;1.55;;;;;;;5.72;56.13;101963.50;10048549;28;20055;-65
2021/03/16 17:09:59;;;;;;;12.80;2.35;;;;;;;5.56;55.76;101976.88;10053599;29;20051;-65
2021/03/16 17:14:55;;;;;;;12.32;2.90;;;;;;;5.41;55.33;101966.69;10053562;29;20440;-64
2021/03/16 17:19:51;;;;;;;8.18;1.40;;;;;;;5.32;53.72;101959.25;10051344;28;20048;-68
2021/03/16 17:24:47;;;;;;;9.13;1.98;;;;;;;5.17;53.79;101979.66;10054593;28;20049;-64
2021/03/16 17:29:43;;;;;;;15.48;2.55;;;;;;;5.21;53.24;101986.22;10050409;28;20511;-65
2021/03/16 17:34:39;;;;;;;7.55;1.83;;;;;;;5.10;52.95;101984.44;10054942;28;20464;-65
2021/03/16 17:39:36;;;;;;;12.07;3.10;;;;;;;5.06;54.22;101988.72;10048851;28;20122;-65
2021/03/16 17:44:32;;;;;;;15.55;4.30;;;;;;;5.03;54.66;101983.78;10050128;28;20051;-63
2021/03/16 17:49:28;;;;;;;11.23;3.03;;;;;;;4.85;54.49;101987.63;10044049;29;21098;-63
2021/03/16 17:54:24;;;;;;;7.45;1.65;;;;;;;4.83;55.21;101987.84;10060609;28;20063;-69
2021/03/16 17:59:20;;;;;;;10.88;2.45;;;;;;;4.80;56.29;101993.78;10042438;28;20066;-66
2021/03/16 18:04:26;;;;;;;9.93;2.25;;;;;;;4.75;56.67;101988.25;10047422;28;20070;-66
2021/03/16 18:09:22;;;;;;;11.07;1.92;;;;;;;4.70;56.94;102000.91;10045131;28;20047;-66
2021/03/16 18:14:18;;;;;;;9.05;1.90;;;;;;;4.53;57.65;102006.34;10052366;28;20051;-66
2021/03/16 18:19:15;;;;;;;14.88;4.57;;;;;;;4.57;58.13;102015.59;10044602;29;20051;-64
2021/03/16 18:24:11;;;;;;;11.13;2.30;;;;;;;4.45;58.51;102012.16;10050161;28;20083;-65
2021/03/16 18:29:07;;;;;;;7.75;2.05;;;;;;;4.38;58.65;102005.00;10042507;28;20039;-64
2021/03/16 18:34:03;;;;;;;13.38;3.58;;;;;;;4.38;59.63;102005.00;10052371;29;20135;-65
2021/03/16 18:38:59;;;;;;;13.48;3.15;;;;;;;4.47;60.50;102005.41;10037178;29;20047;-64
2021/03/16 18:43:56;;;;;;;15.38;4.38;;;;;;;4.39;61.27;102006.66;10056960;28;20071;-64
2021/03/16 18:48:53;;;;;;;10.45;1.98;;;;;;;4.43;62.51;102007.81;10040945;28;20490;-64
2021/03/16 18:53:49;;;;;;;13.70;1.98;;;;;;;4.36;63.00;102007.16;10036597;28;20051;-68
2021/03/16 18:58:45;;;;;;;11.50;2.95;;;;;;;4.08;63.67;102013.41;10040644;29;20070;-67
2021/03/16 19:03:41;;;;;;;8.50;2.05;;;;;;;4.22;63.64;102011.22;10046076;29;20098;-66
2021/03/16 19:08:37;;;;;;;12.50;2.97;;;;;;;4.09;63.58;102006.13;10059806;28;20066;-66
2021/03/16 19:13:33;;;;;;;12.95;3.53;;;;;;;4.04;62.67;102004.13;10045613;28;20518;-69
2021/03/16 19:18:30;;;;;;;9.10;1.75;;;;;;;3.87;62.68;102004.06;10052789;28;20043;-65
2021/03/16 19:23:27;;;;;;;7.57;1.23;;;;;;;3.83;62.95;102011.03;10044351;28;20782;-64
2021/03/16 19:28:23;;;;;;;8.57;1.48;;;;;;;3.84;61.93;102007.25;10047590;28;20138;-65
2021/03/16 19:33:20;;;;;;;13.07;2.17;;;;;;;3.83;61.19;102008.34;10054469;28;20106;-64
2021/03/16 19:38:16;;;;;;;8.43;2.13;;;;;;;3.79;60.96;102008.00;10050128;28;20181;-65
2021/03/16 19:43:13;;;;;;;7.60;1.23;;;;;;;3.66;61.25;102012.84;10047567;28;20406;-68
2021/03/16 19:48:09;;;;;;;6.90;1.73;;;;;;;3.70;60.04;102014.03;10028227;29;20051;-66
2021/03/16 19:53:06;;;;;;;7.90;1.73;;;;;;;3.57;59.86;102025.91;10043955;28;20728;-65
2021/03/16 19:58:03;;;;;;;7.97;1.52;;;;;;;3.55;59.85;102023.47;10042956;28;20047;-66
2021/03/16 20:03:00;;;;;;;6.88;0.82;;;;;;;3.44;59.81;102024.31;10046705;28;20525;-67
2021/03/16 20:07:56;;;;;;;7.63;1.23;;;;;;;3.44;59.97;102034.31;10048756;29;20051;-66
2021/03/16 20:12:53;;;;;;;7.53;1.58;;;;;;;3.46;60.44;102030.31;10028375;28;20039;-65
2021/03/16 20:17:49;;;;;;;8.80;1.35;;;;;;;3.34;60.61;102037.59;10045814;28;20593;-64
2021/03/16 20:22:45;;;;;;;15.05;1.13;;;;;;;3.11;60.81;102039.28;10045700;29;20040;-65
2021/03/16 20:27:41;;;;;;;6.75;1.20;;;;;;;3.25;61.30;102049.81;10040236;28;20098;-65
2021/03/16 20:32:41;;;;;;;13.40;2.78;;;;;;;3.23;60.94;102052.78;10050642;28;20042;-64
2021/03/16 20:37:37;;;;;;;7.18;1.02;;;;;;;3.17;61.74;102054.53;10042419;28;20106;-65
2021/03/16 20:42:33;;;;;;;6.82;1.30;;;;;;;3.06;61.84;102052.66;10052000;28;20039;-64
2021/03/16 20:47:30;;;;;;;6.07;0.93;;;;;;;3.10;62.19;102053.00;10055438;28;20056;-65
2021/03/16 20:52:27;;;;;;;6.35;1.08;;;;;;;3.00;61.87;102053.59;10052947;28;20051;-65
2021/03/16 20:57:23;;;;;;;10.57;1.10;;;;;;;3.02;61.69;102059.59;10050847;28;20672;-66
2021/03/16 21:02:19;;;;;;;7.45;1.13;;;;;;;2.97;62.11;102064.88;10053919;28;20381;-63
2021/03/16 21:07:15;;;;;;;8.02;1.10;;;;;;;2.78;62.70;102063.31;10031587;28;20047;-68
2021/03/16 21:12:12;;;;;;;12.07;2.17;;;;;;;2.87;63.03;102065.44;10046953;28;20047;-71
2021/03/16 21:17:08;;;;;;;10.07;2.05;;;;;;;2.66;63.00;102069.53;10049578;28;20055;-66
2021/03/16 21:22:04;;;;;;;9.18;1.73;;;;;;;2.66;63.25;102082.22;10061526;28;20122;-68
2021/03/16 21:27:00;;;;;;;10.65;1.55;;;;;;;2.70;63.11;102086.91;10055096;28;20676;-68
2021/03/16 21:31:56;;;;;;;14.10;2.78;;;;;;;2.65;63.93;102084.09;10048905;29;20039;-66
2021/03/16 21:36:52;;;;;;;4.50;0.93;;;;;;;2.60;63.64;102075.88;10048376;28;20087;-69
2021/03/16 21:41:48;;;;;;;9.15;1.00;;;;;;;2.59;64.80;102074.19;10060122;28;20709;-68
2021/03/16 21:46:44;;;;;;;7.50;0.93;;;;;;;2.59;64.92;102079.59;10050171;28;20759;-68
2021/03/16 21:51:41;;;;;;;8.45;2.63;;;;;;;2.64;63.82;102082.44;10051517;28;20052;-67
2021/03/16 21:56:38;;;;;;;14.85;3.08;;;;;;;2.53;64.19;102075.16;10054328;28;20050;-65
2021/03/16 22:01:34;;;;;;;13.20;1.80;;;;;;;2.39;64.96;102079.06;10056764;28;20151;-65
2021/03/16 22:06:30;;;;;;;11.15;1.27;;;;;;;2.37;64.57;102089.25;10058240;28;20047;-68
2021/03/16 22:11:26;;;;;;;6.53;1.48;;;;;;;2.30;64.90;102092.91;10046582;29;20047;-67
2021/03/16 22:16:22;;;;;;;11.60;1.50;;;;;;;2.34;65.66;102092.44;10074284;28;20503;-66
2021/03/16 22:21:19;;;;;;;9.85;1.67;;;;;;;2.25;65.98;102089.22;10067124;28;20051;-69
2021/03/16 22:26:15;;;;;;;9.40;1.40;;;;;;;2.29;65.55;102082.31;10054974;28;20043;-65
2021/03/16 22:31:11;;;;;;;10.25;1.15;;;;;;;2.30;65.68;102097.47;10060783;28;20051;-67
2021/03/16 22:36:11;;;;;;;6.35;1.25;;;;;;;2.17;66.54;102092.25;10062954;28;20043;-67
2021/03/16 22:41:08;;;;;;;11.82;1.98;;;;;;;2.26;65.87;102099.81;10057983;28;20094;-67
2021/03/16 22:46:04;;;;;;;10.20;1.95;;;;;;;2.06;66.83;102091.13;10065104;28;20117;-67
2021/03/16 22:51:01;;;;;;;10.05;1.45;;;;;;;2.09;66.89;102088.00;10053717;28;20043;-68